sensor_id;sensor_type;location;lat;lon;timestamp;temperature;humidity
14475;DHT22;7323;50.848;4.334;2022-08-21T00:00:30;20.00;1.00
14475;DHT22;7323;50.848;4.334;2022-08-21T00:03:00;19.90;1.00
14475;DHT22;7323;50.848;4.334;2022-08-21T00:05:30;19.80;1.00
14475;DHT22;7323;50.848;4.334;2022-08-21T00:08:02;19.70;1.00
14475;DHT22;7323;50.848;4.334;2022-08-21T00:10:28;19.60;1.00
14475;DHT22;7323;50.848;4.334;2022-08-21T00:12:54;19.50;1.00
14475;DHT22;7323;50.848;4.334;2022-08-21T00:15:26;19.30;1.00
14475;DHT22;7323;50.848;4.334;2022-08-21T00:17:58;19.20;1.00
14475;DHT22;7323;50.848;4.334;2022-08-21T00:20:26;19.10;1.00
14475;DHT22;7323;50.848;4.334;2022-08-21T00:22:57;19.00;1.00
14475;DHT22;7323;50.848;4.334;2022-08-21T00:25:26;19.00;1.00
14475;DHT22;7323;50.848;4.334;2022-08-21T00:27:56;19.00;1.00
14475;DHT22;7323;50.848;4.334;2022-08-21T00:30:35;19.00;1.00
14475;DHT22;7323;50.848;4.334;2022-08-21T00:33:02;19.00;1.00
14475;DHT22;7323;50.848;4.334;2022-08-21T00:35:31;19.00;1.00
14475;DHT22;7323;50.848;4.334;2022-08-21T00:37:59;18.90;1.00
14475;DHT22;7323;50.848;4.334;2022-08-21T00:40:37;19.00;1.00
14475;DHT22;7323;50.848;4.334;2022-08-21T00:43:06;18.90;1.00
14475;DHT22;7323;50.848;4.334;2022-08-21T00:45:33;18.80;1.00
14475;DHT22;7323;50.848;4.334;2022-08-21T00:48:05;18.70;1.00
14475;DHT22;7323;50.848;4.334;2022-08-21T00:50:35;18.70;1.00
14475;DHT22;7323;50.848;4.334;2022-08-21T00:53:06;18.80;1.00
14475;DHT22;7323;50.848;4.334;2022-08-21T00:55:32;18.70;1.00
14475;DHT22;7323;50.848;4.334;2022-08-21T00:58:11;18.60;1.00
14475;DHT22;7323;50.848;4.334;2022-08-21T01:00:41;18.60;1.00
14475;DHT22;7323;50.848;4.334;2022-08-21T01:03:15;18.50;1.00
14475;DHT22;7323;50.848;4.334;2022-08-21T01:05:43;18.40;1.00
14475;DHT22;7323;50.848;4.334;2022-08-21T01:08:17;18.30;1.00
14475;DHT22;7323;50.848;4.334;2022-08-21T01:10:46;18.30;1.00
14475;DHT22;7323;50.848;4.334;2022-08-21T01:13:16;18.30;1.00
14475;DHT22;7323;50.848;4.334;2022-08-21T01:15:46;18.30;1.00
14475;DHT22;7323;50.848;4.334;2022-08-21T01:18:14;18.50;1.00
14475;DHT22;7323;50.848;4.334;2022-08-21T01:20:45;18.50;1.00
14475;DHT22;7323;50.848;4.334;2022-08-21T01:23:12;18.60;1.00
14475;DHT22;7323;50.848;4.334;2022-08-21T01:25:38;18.50;1.00
14475;DHT22;7323;50.848;4.334;2022-08-21T01:28:13;18.40;1.00
14475;DHT22;7323;50.848;4.334;2022-08-21T01:30:43;18.30;1.00
14475;DHT22;7323;50.848;4.334;2022-08-21T01:33:46;18.30;1.00
14475;DHT22;7323;50.848;4.334;2022-08-21T01:36:15;18.30;1.00
14475;DHT22;7323;50.848;4.334;2022-08-21T01:38:44;18.20;1.00
14475;DHT22;7323;50.848;4.334;2022-08-21T01:41:15;18.20;1.00
14475;DHT22;7323;50.848;4.334;2022-08-21T01:43:42;18.10;1.00
14475;DHT22;7323;50.848;4.334;2022-08-21T01:46:10;18.10;1.00
14475;DHT22;7323;50.848;4.334;2022-08-21T01:48:36;18.10;1.00
14475;DHT22;7323;50.848;4.334;2022-08-21T01:51:05;18.10;1.00
14475;DHT22;7323;50.848;4.334;2022-08-21T01:53:37;18.20;1.00
14475;DHT22;7323;50.848;4.334;2022-08-21T01:56:09;18.00;1.00
14475;DHT22;7323;50.848;4.334;2022-08-21T01:58:37;17.90;1.00
14475;DHT22;7323;50.848;4.334;2022-08-21T02:01:04;17.90;1.00
14475;DHT22;7323;50.848;4.334;2022-08-21T02:03:30;17.90;1.00
14475;DHT22;7323;50.848;4.334;2022-08-21T02:06:02;17.80;1.00
14475;DHT22;7323;50.848;4.334;2022-08-21T02:08:30;17.60;1.00
14475;DHT22;7323;50.848;4.334;2022-08-21T02:10:56;17.50;1.00
14475;DHT22;7323;50.848;4.334;2022-08-21T02:13:25;17.60;1.00
14475;DHT22;7323;50.848;4.334;2022-08-21T02:15:58;17.50;1.00
14475;DHT22;7323;50.848;4.334;2022-08-21T02:18:27;17.60;1.00
14475;DHT22;7323;50.848;4.334;2022-08-21T02:20:57;17.60;1.00
14475;DHT22;7323;50.848;4.334;2022-08-21T02:23:24;17.60;1.00
14475;DHT22;7323;50.848;4.334;2022-08-21T02:25:50;17.60;1.00
14475;DHT22;7323;50.848;4.334;2022-08-21T02:28:19;17.60;1.00
14475;DHT22;7323;50.848;4.334;2022-08-21T02:31:23;17.60;1.00
14475;DHT22;7323;50.848;4.334;2022-08-21T02:36:44;17.50;1.00
14475;DHT22;7323;50.848;4.334;2022-08-21T02:39:10;17.50;1.00
14475;DHT22;7323;50.848;4.334;2022-08-21T02:41:38;17.50;1.00
14475;DHT22;7323;50.848;4.334;2022-08-21T02:44:04;17.70;1.00
14475;DHT22;7323;50.848;4.334;2022-08-21T02:46:33;17.70;1.00
14475;DHT22;7323;50.848;4.334;2022-08-21T02:49:03;17.80;1.00
14475;DHT22;7323;50.848;4.334;2022-08-21T02:51:30;17.60;1.00
14475;DHT22;7323;50.848;4.334;2022-08-21T02:53:59;17.50;1.00
14475;DHT22;7323;50.848;4.334;2022-08-21T02:56:28;17.40;1.00
14475;DHT22;7323;50.848;4.334;2022-08-21T02:58:57;17.30;1.00
14475;DHT22;7323;50.848;4.334;2022-08-21T03:01:26;17.40;1.00
14475;DHT22;7323;50.848;4.334;2022-08-21T03:03:52;17.40;1.00
14475;DHT22;7323;50.848;4.334;2022-08-21T03:06:22;17.40;1.00
14475;DHT22;7323;50.848;4.334;2022-08-21T03:08:49;17.50;1.00
14475;DHT22;7323;50.848;4.334;2022-08-21T03:11:16;17.60;1.00
14475;DHT22;7323;50.848;4.334;2022-08-21T03:13:43;17.50;1.00
14475;DHT22;7323;50.848;4.334;2022-08-21T03:16:12;17.50;1.00
14475;DHT22;7323;50.848;4.334;2022-08-21T03:18:40;17.40;1.00
14475;DHT22;7323;50.848;4.334;2022-08-21T03:21:10;17.40;1.00
14475;DHT22;7323;50.848;4.334;2022-08-21T03:23:38;17.40;1.00
14475;DHT22;7323;50.848;4.334;2022-08-21T03:26:08;17.40;1.00
14475;DHT22;7323;50.848;4.334;2022-08-21T03:28:37;17.30;1.00
14475;DHT22;7323;50.848;4.334;2022-08-21T03:31:07;17.40;1.00
14475;DHT22;7323;50.848;4.334;2022-08-21T03:33:34;17.40;1.00
14475;DHT22;7323;50.848;4.334;2022-08-21T03:36:03;17.40;1.00
14475;DHT22;7323;50.848;4.334;2022-08-21T03:38:32;17.30;1.00
14475;DHT22;7323;50.848;4.334;2022-08-21T03:41:00;17.30;1.00
14475;DHT22;7323;50.848;4.334;2022-08-21T03:43:27;17.20;1.00
14475;DHT22;7323;50.848;4.334;2022-08-21T03:45:54;17.10;1.00
14475;DHT22;7323;50.848;4.334;2022-08-21T03:48:23;17.20;1.00
14475;DHT22;7323;50.848;4.334;2022-08-21T03:50:54;17.20;1.00
14475;DHT22;7323;50.848;4.334;2022-08-21T03:53:30;17.10;1.00
14475;DHT22;7323;50.848;4.334;2022-08-21T03:55:57;17.00;1.00
14475;DHT22;7323;50.848;4.334;2022-08-21T03:58:32;17.00;1.00
14475;DHT22;7323;50.848;4.334;2022-08-21T04:01:00;16.90;1.00
14475;DHT22;7323;50.848;4.334;2022-08-21T04:03:36;16.90;1.00
14475;DHT22;7323;50.848;4.334;2022-08-21T04:06:03;16.80;1.00
14475;DHT22;7323;50.848;4.334;2022-08-21T04:08:30;16.70;1.00
14475;DHT22;7323;50.848;4.334;2022-08-21T04:10:57;16.70;2.40
14475;DHT22;7323;50.848;4.334;2022-08-21T04:13:24;16.70;2.60
14475;DHT22;7323;50.848;4.334;2022-08-21T04:15:52;16.80;3.00
14475;DHT22;7323;50.848;4.334;2022-08-21T04:18:18;16.80;1.00
14475;DHT22;7323;50.848;4.334;2022-08-21T04:20:48;16.90;1.00
14475;DHT22;7323;50.848;4.334;2022-08-21T04:23:19;17.10;1.00
14475;DHT22;7323;50.848;4.334;2022-08-21T04:25:45;17.10;1.00
14475;DHT22;7323;50.848;4.334;2022-08-21T04:28:14;17.20;1.00
14475;DHT22;7323;50.848;4.334;2022-08-21T04:30:43;17.30;1.00
14475;DHT22;7323;50.848;4.334;2022-08-21T04:33:11;17.20;1.00
14475;DHT22;7323;50.848;4.334;2022-08-21T04:35:46;17.10;1.00
14475;DHT22;7323;50.848;4.334;2022-08-21T04:38:15;16.80;1.00
14475;DHT22;7323;50.848;4.334;2022-08-21T04:40:45;16.70;1.00
14475;DHT22;7323;50.848;4.334;2022-08-21T04:43:19;16.80;1.00
14475;DHT22;7323;50.848;4.334;2022-08-21T04:46:10;16.70;1.70
14475;DHT22;7323;50.848;4.334;2022-08-21T04:48:38;16.70;2.10
14475;DHT22;7323;50.848;4.334;2022-08-21T04:51:15;16.70;1.10
14475;DHT22;7323;50.848;4.334;2022-08-21T04:53:50;16.90;1.00
14475;DHT22;7323;50.848;4.334;2022-08-21T04:56:27;16.70;1.00
14475;DHT22;7323;50.848;4.334;2022-08-21T04:59:00;16.60;8.30
14475;DHT22;7323;50.848;4.334;2022-08-21T05:01:32;16.60;6.90
14475;DHT22;7323;50.848;4.334;2022-08-21T05:04:12;16.70;2.40
14475;DHT22;7323;50.848;4.334;2022-08-21T05:06:41;16.60;2.80
14475;DHT22;7323;50.848;4.334;2022-08-21T05:09:09;16.50;8.70
14475;DHT22;7323;50.848;4.334;2022-08-21T05:11:36;16.50;12.10
14475;DHT22;7323;50.848;4.334;2022-08-21T05:14:03;16.60;5.70
14475;DHT22;7323;50.848;4.334;2022-08-21T05:16:32;16.80;1.00
14475;DHT22;7323;50.848;4.334;2022-08-21T05:18:59;16.90;1.00
14475;DHT22;7323;50.848;4.334;2022-08-21T05:21:25;17.00;1.00
14475;DHT22;7323;50.848;4.334;2022-08-21T05:23:51;17.20;1.00
14475;DHT22;7323;50.848;4.334;2022-08-21T05:26:20;17.10;1.00
14475;DHT22;7323;50.848;4.334;2022-08-21T05:28:49;17.10;1.00
14475;DHT22;7323;50.848;4.334;2022-08-21T05:31:15;17.20;1.00
14475;DHT22;7323;50.848;4.334;2022-08-21T05:33:41;17.10;1.00
14475;DHT22;7323;50.848;4.334;2022-08-21T05:36:07;17.20;1.00
14475;DHT22;7323;50.848;4.334;2022-08-21T05:38:35;17.20;1.00
14475;DHT22;7323;50.848;4.334;2022-08-21T05:41:03;17.30;1.00
14475;DHT22;7323;50.848;4.334;2022-08-21T05:43:29;17.10;1.00
14475;DHT22;7323;50.848;4.334;2022-08-21T05:45:58;17.20;1.00
14475;DHT22;7323;50.848;4.334;2022-08-21T05:48:24;17.20;1.00
14475;DHT22;7323;50.848;4.334;2022-08-21T05:50:51;17.30;1.00
14475;DHT22;7323;50.848;4.334;2022-08-21T05:53:21;17.30;1.00
14475;DHT22;7323;50.848;4.334;2022-08-21T05:55:48;17.30;1.00
14475;DHT22;7323;50.848;4.334;2022-08-21T05:58:19;17.20;1.00
14475;DHT22;7323;50.848;4.334;2022-08-21T06:00:49;17.10;1.00
14475;DHT22;7323;50.848;4.334;2022-08-21T06:03:23;17.10;1.00
14475;DHT22;7323;50.848;4.334;2022-08-21T06:05:50;17.10;1.00
14475;DHT22;7323;50.848;4.334;2022-08-21T06:08:17;17.20;1.00
14475;DHT22;7323;50.848;4.334;2022-08-21T06:10:56;17.30;1.00
14475;DHT22;7323;50.848;4.334;2022-08-21T06:13:23;17.30;1.00
14475;DHT22;7323;50.848;4.334;2022-08-21T06:16:01;17.30;1.00
14475;DHT22;7323;50.848;4.334;2022-08-21T06:18:27;17.30;1.00
14475;DHT22;7323;50.848;4.334;2022-08-21T06:20:54;17.30;1.00
14475;DHT22;7323;50.848;4.334;2022-08-21T06:23:21;17.30;1.00
14475;DHT22;7323;50.848;4.334;2022-08-21T06:25:47;17.40;1.00
14475;DHT22;7323;50.848;4.334;2022-08-21T06:28:13;17.40;1.00
14475;DHT22;7323;50.848;4.334;2022-08-21T06:30:41;17.60;1.00
14475;DHT22;7323;50.848;4.334;2022-08-21T06:33:07;17.70;1.00
14475;DHT22;7323;50.848;4.334;2022-08-21T06:35:33;17.80;1.00
14475;DHT22;7323;50.848;4.334;2022-08-21T06:37:59;17.80;1.00
14475;DHT22;7323;50.848;4.334;2022-08-21T06:40:27;17.90;1.00
14475;DHT22;7323;50.848;4.334;2022-08-21T06:42:53;18.00;1.00
14475;DHT22;7323;50.848;4.334;2022-08-21T06:45:20;18.00;1.00
14475;DHT22;7323;50.848;4.334;2022-08-21T06:47:49;18.20;1.00
14475;DHT22;7323;50.848;4.334;2022-08-21T06:50:15;18.20;1.00
14475;DHT22;7323;50.848;4.334;2022-08-21T06:52:41;18.40;1.00
14475;DHT22;7323;50.848;4.334;2022-08-21T06:55:08;18.80;1.00
14475;DHT22;7323;50.848;4.334;2022-08-21T06:57:35;19.20;1.00
14475;DHT22;7323;50.848;4.334;2022-08-21T07:00:04;19.50;1.00
14475;DHT22;7323;50.848;4.334;2022-08-21T07:02:31;19.80;1.00
14475;DHT22;7323;50.848;4.334;2022-08-21T07:04:59;19.90;1.00
14475;DHT22;7323;50.848;4.334;2022-08-21T07:07:30;20.10;1.00
14475;DHT22;7323;50.848;4.334;2022-08-21T07:09:55;20.20;1.00
14475;DHT22;7323;50.848;4.334;2022-08-21T07:12:21;20.40;1.00
14475;DHT22;7323;50.848;4.334;2022-08-21T07:14:47;20.50;1.00
14475;DHT22;7323;50.848;4.334;2022-08-21T07:17:14;20.70;1.00
14475;DHT22;7323;50.848;4.334;2022-08-21T07:19:40;20.80;1.00
14475;DHT22;7323;50.848;4.334;2022-08-21T07:22:06;20.90;1.00
14475;DHT22;7323;50.848;4.334;2022-08-21T07:24:32;21.00;1.00
14475;DHT22;7323;50.848;4.334;2022-08-21T07:26:58;21.00;1.00
14475;DHT22;7323;50.848;4.334;2022-08-21T07:29:24;21.00;1.00
14475;DHT22;7323;50.848;4.334;2022-08-21T07:31:50;21.10;1.00
14475;DHT22;7323;50.848;4.334;2022-08-21T07:34:15;21.00;1.00
14475;DHT22;7323;50.848;4.334;2022-08-21T07:36:41;21.10;1.00
14475;DHT22;7323;50.848;4.334;2022-08-21T07:39:08;21.40;1.00
14475;DHT22;7323;50.848;4.334;2022-08-21T07:41:34;21.50;1.00
14475;DHT22;7323;50.848;4.334;2022-08-21T07:44:12;21.40;1.00
14475;DHT22;7323;50.848;4.334;2022-08-21T07:46:47;21.00;1.00
14475;DHT22;7323;50.848;4.334;2022-08-21T07:49:12;21.00;1.00
14475;DHT22;7323;50.848;4.334;2022-08-21T07:51:38;21.10;1.00
14475;DHT22;7323;50.848;4.334;2022-08-21T07:54:04;20.90;1.00
14475;DHT22;7323;50.848;4.334;2022-08-21T07:56:31;21.00;1.00
14475;DHT22;7323;50.848;4.334;2022-08-21T07:58:57;21.00;1.00
14475;DHT22;7323;50.848;4.334;2022-08-21T08:01:24;21.00;1.00
14475;DHT22;7323;50.848;4.334;2022-08-21T08:03:50;21.10;1.00
14475;DHT22;7323;50.848;4.334;2022-08-21T08:06:16;21.10;1.00
14475;DHT22;7323;50.848;4.334;2022-08-21T08:08:44;21.00;1.00
14475;DHT22;7323;50.848;4.334;2022-08-21T08:11:11;20.80;1.00
14475;DHT22;7323;50.848;4.334;2022-08-21T08:13:43;20.90;1.00
14475;DHT22;7323;50.848;4.334;2022-08-21T08:16:10;21.00;1.00
14475;DHT22;7323;50.848;4.334;2022-08-21T08:18:36;20.70;1.00
14475;DHT22;7323;50.848;4.334;2022-08-21T08:21:02;20.40;1.00
14475;DHT22;7323;50.848;4.334;2022-08-21T08:23:28;20.30;1.00
14475;DHT22;7323;50.848;4.334;2022-08-21T08:25:56;20.30;1.00
14475;DHT22;7323;50.848;4.334;2022-08-21T08:28:22;20.60;1.00
14475;DHT22;7323;50.848;4.334;2022-08-21T08:30:49;20.80;1.00
14475;DHT22;7323;50.848;4.334;2022-08-21T08:33:15;21.20;1.00
14475;DHT22;7323;50.848;4.334;2022-08-21T08:35:47;21.30;1.00
14475;DHT22;7323;50.848;4.334;2022-08-21T08:38:14;21.30;1.00
14475;DHT22;7323;50.848;4.334;2022-08-21T08:43:28;20.90;1.00
14475;DHT22;7323;50.848;4.334;2022-08-21T08:45:56;20.70;1.00
14475;DHT22;7323;50.848;4.334;2022-08-21T08:48:50;20.50;1.00
14475;DHT22;7323;50.848;4.334;2022-08-21T08:54:43;20.60;1.00
14475;DHT22;7323;50.848;4.334;2022-08-21T08:57:16;20.60;1.00
14475;DHT22;7323;50.848;4.334;2022-08-21T08:59:46;20.60;1.00
14475;DHT22;7323;50.848;4.334;2022-08-21T09:02:15;20.60;1.00
14475;DHT22;7323;50.848;4.334;2022-08-21T09:04:41;21.00;1.00
14475;DHT22;7323;50.848;4.334;2022-08-21T09:07:12;21.10;1.00
14475;DHT22;7323;50.848;4.334;2022-08-21T09:09:53;21.30;1.00
14475;DHT22;7323;50.848;4.334;2022-08-21T09:15:41;21.50;1.00
14475;DHT22;7323;50.848;4.334;2022-08-21T09:20:57;21.60;1.00
14475;DHT22;7323;50.848;4.334;2022-08-21T09:26:23;22.10;1.00
14475;DHT22;7323;50.848;4.334;2022-08-21T09:28:56;22.40;1.00
14475;DHT22;7323;50.848;4.334;2022-08-21T09:31:27;22.50;99.90
14475;DHT22;7323;50.848;4.334;2022-08-21T09:34:08;22.30;99.90
14475;DHT22;7323;50.848;4.334;2022-08-21T09:36:39;22.60;99.90
14475;DHT22;7323;50.848;4.334;2022-08-21T09:39:07;22.50;99.90
14475;DHT22;7323;50.848;4.334;2022-08-21T09:41:39;22.70;99.90
14475;DHT22;7323;50.848;4.334;2022-08-21T09:44:07;22.90;99.90
14475;DHT22;7323;50.848;4.334;2022-08-21T09:46:34;23.10;99.90
14475;DHT22;7323;50.848;4.334;2022-08-21T09:49:02;23.40;99.90
14475;DHT22;7323;50.848;4.334;2022-08-21T09:51:34;23.30;99.90
14475;DHT22;7323;50.848;4.334;2022-08-21T09:56:56;22.50;99.90
14475;DHT22;7323;50.848;4.334;2022-08-21T09:59:42;22.30;99.90
14475;DHT22;7323;50.848;4.334;2022-08-21T10:02:30;22.00;99.90
14475;DHT22;7323;50.848;4.334;2022-08-21T10:05:00;22.00;99.90
14475;DHT22;7323;50.848;4.334;2022-08-21T10:07:30;22.00;99.90
14475;DHT22;7323;50.848;4.334;2022-08-21T10:10:08;22.00;99.90
14475;DHT22;7323;50.848;4.334;2022-08-21T10:21:08;22.80;99.90
14475;DHT22;7323;50.848;4.334;2022-08-21T10:34:37;23.40;99.90
14475;DHT22;7323;50.848;4.334;2022-08-21T10:40:25;23.90;3.80
14475;DHT22;7323;50.848;4.334;2022-08-21T10:45:46;24.20;1.00
14475;DHT22;7323;50.848;4.334;2022-08-21T10:48:34;24.10;1.00
14475;DHT22;7323;50.848;4.334;2022-08-21T10:51:11;23.50;1.00
14475;DHT22;7323;50.848;4.334;2022-08-21T10:53:45;23.30;49.20
14475;DHT22;7323;50.848;4.334;2022-08-21T10:56:17;23.50;99.90
14475;DHT22;7323;50.848;4.334;2022-08-21T11:01:29;23.80;1.00
14475;DHT22;7323;50.848;4.334;2022-08-21T11:04:26;24.00;1.00
14475;DHT22;7323;50.848;4.334;2022-08-21T11:07:02;23.90;1.00
14475;DHT22;7323;50.848;4.334;2022-08-21T11:09:30;23.80;1.00
14475;DHT22;7323;50.848;4.334;2022-08-21T11:12:03;23.50;1.00
14475;DHT22;7323;50.848;4.334;2022-08-21T11:14:36;23.50;36.40
14475;DHT22;7323;50.848;4.334;2022-08-21T11:17:13;23.60;1.00
14475;DHT22;7323;50.848;4.334;2022-08-21T11:23:03;23.40;1.00
14475;DHT22;7323;50.848;4.334;2022-08-21T11:25:35;23.20;17.70
14475;DHT22;7323;50.848;4.334;2022-08-21T11:28:10;23.30;1.00
14475;DHT22;7323;50.848;4.334;2022-08-21T11:42:08;24.00;1.00
14475;DHT22;7323;50.848;4.334;2022-08-21T11:47:31;24.10;1.00
14475;DHT22;7323;50.848;4.334;2022-08-21T11:50:15;24.00;99.90
14475;DHT22;7323;50.848;4.334;2022-08-21T11:55:52;23.90;1.00
14475;DHT22;7323;50.848;4.334;2022-08-21T11:58:35;24.40;1.00
14475;DHT22;7323;50.848;4.334;2022-08-21T12:01:19;24.80;99.90
14475;DHT22;7323;50.848;4.334;2022-08-21T12:06:47;24.50;99.90
14475;DHT22;7323;50.848;4.334;2022-08-21T12:12:01;24.00;99.90
14475;DHT22;7323;50.848;4.334;2022-08-21T12:17:37;24.10;99.90
14475;DHT22;7323;50.848;4.334;2022-08-21T12:20:26;24.20;1.00
14475;DHT22;7323;50.848;4.334;2022-08-21T12:26:02;24.50;99.90
14475;DHT22;7323;50.848;4.334;2022-08-21T12:28:30;24.80;99.90
14475;DHT22;7323;50.848;4.334;2022-08-21T12:30:57;25.10;1.00
14475;DHT22;7323;50.848;4.334;2022-08-21T12:33:37;25.00;1.00
14475;DHT22;7323;50.848;4.334;2022-08-21T12:36:20;25.10;99.90
14475;DHT22;7323;50.848;4.334;2022-08-21T12:39:04;25.20;1.00
14475;DHT22;7323;50.848;4.334;2022-08-21T12:41:49;24.80;1.00
14475;DHT22;7323;50.848;4.334;2022-08-21T12:44:42;24.40;1.00
14475;DHT22;7323;50.848;4.334;2022-08-21T12:47:30;24.20;99.90
14475;DHT22;7323;50.848;4.334;2022-08-21T12:50:13;24.50;1.00
14475;DHT22;7323;50.848;4.334;2022-08-21T12:52:45;24.60;1.00
14475;DHT22;7323;50.848;4.334;2022-08-21T12:55:15;24.70;1.00
14475;DHT22;7323;50.848;4.334;2022-08-21T12:57:42;24.60;1.00
14475;DHT22;7323;50.848;4.334;2022-08-21T13:00:11;24.20;99.90
14475;DHT22;7323;50.848;4.334;2022-08-21T13:02:43;24.10;99.90
14475;DHT22;7323;50.848;4.334;2022-08-21T13:05:19;24.00;32.40
14475;DHT22;7323;50.848;4.334;2022-08-21T13:07:49;23.80;1.00
14475;DHT22;7323;50.848;4.334;2022-08-21T13:10:23;23.70;99.90
14475;DHT22;7323;50.848;4.334;2022-08-21T13:12:59;24.00;99.90
14475;DHT22;7323;50.848;4.334;2022-08-21T13:15:39;24.10;99.90
14475;DHT22;7323;50.848;4.334;2022-08-21T13:18:06;24.20;1.00
14475;DHT22;7323;50.848;4.334;2022-08-21T13:20:39;24.40;1.00
14475;DHT22;7323;50.848;4.334;2022-08-21T13:23:28;24.20;99.90
14475;DHT22;7323;50.848;4.334;2022-08-21T13:26:11;24.10;1.00
14475;DHT22;7323;50.848;4.334;2022-08-21T13:28:54;24.10;99.90
14475;DHT22;7323;50.848;4.334;2022-08-21T13:31:38;24.30;99.90
14475;DHT22;7323;50.848;4.334;2022-08-21T13:34:15;24.30;1.00
14475;DHT22;7323;50.848;4.334;2022-08-21T13:36:42;24.20;99.90
14475;DHT22;7323;50.848;4.334;2022-08-21T13:39:11;24.40;1.00
14475;DHT22;7323;50.848;4.334;2022-08-21T13:41:43;24.60;99.90
14475;DHT22;7323;50.848;4.334;2022-08-21T13:44:39;24.50;99.90
14475;DHT22;7323;50.848;4.334;2022-08-21T13:47:10;24.60;99.90
14475;DHT22;7323;50.848;4.334;2022-08-21T13:49:39;24.70;1.00
14475;DHT22;7323;50.848;4.334;2022-08-21T13:52:25;24.60;1.00
14475;DHT22;7323;50.848;4.334;2022-08-21T13:54:57;24.50;99.90
14475;DHT22;7323;50.848;4.334;2022-08-21T13:57:29;24.60;22.80
14475;DHT22;7323;50.848;4.334;2022-08-21T14:02:45;24.20;1.00
14475;DHT22;7323;50.848;4.334;2022-08-21T14:05:24;24.20;1.00
14475;DHT22;7323;50.848;4.334;2022-08-21T14:08:12;24.10;99.90
14475;DHT22;7323;50.848;4.334;2022-08-21T14:10:44;24.20;99.90
14475;DHT22;7323;50.848;4.334;2022-08-21T14:13:37;24.30;1.00
14475;DHT22;7323;50.848;4.334;2022-08-21T14:18:52;24.20;1.00
14475;DHT22;7323;50.848;4.334;2022-08-21T14:21:34;24.30;1.00
14475;DHT22;7323;50.848;4.334;2022-08-21T14:24:06;24.20;17.60
14475;DHT22;7323;50.848;4.334;2022-08-21T14:26:42;24.30;1.00
14475;DHT22;7323;50.848;4.334;2022-08-21T14:29:09;24.40;82.60
14475;DHT22;7323;50.848;4.334;2022-08-21T14:31:35;24.60;99.90
14475;DHT22;7323;50.848;4.334;2022-08-21T14:34:04;24.80;42.20
14475;DHT22;7323;50.848;4.334;2022-08-21T14:36:30;25.10;99.90
14475;DHT22;7323;50.848;4.334;2022-08-21T14:38:55;25.30;1.00
14475;DHT22;7323;50.848;4.334;2022-08-21T14:41:23;25.40;1.00
14475;DHT22;7323;50.848;4.334;2022-08-21T14:43:51;25.70;99.90
14475;DHT22;7323;50.848;4.334;2022-08-21T14:46:25;25.60;99.90
14475;DHT22;7323;50.848;4.334;2022-08-21T14:48:52;25.50;43.90
14475;DHT22;7323;50.848;4.334;2022-08-21T14:51:18;25.60;99.90
14475;DHT22;7323;50.848;4.334;2022-08-21T14:53:44;25.90;21.30
14475;DHT22;7323;50.848;4.334;2022-08-21T14:56:22;25.90;1.00
14475;DHT22;7323;50.848;4.334;2022-08-21T14:58:58;26.10;1.00
14475;DHT22;7323;50.848;4.334;2022-08-21T15:01:26;25.90;1.00
14475;DHT22;7323;50.848;4.334;2022-08-21T15:03:52;25.90;1.00
14475;DHT22;7323;50.848;4.334;2022-08-21T15:06:41;25.70;1.00
14475;DHT22;7323;50.848;4.334;2022-08-21T15:09:07;25.50;99.90
14475;DHT22;7323;50.848;4.334;2022-08-21T15:11:33;25.40;99.90
14475;DHT22;7323;50.848;4.334;2022-08-21T15:14:05;25.50;1.00
14475;DHT22;7323;50.848;4.334;2022-08-21T15:16:40;25.50;1.00
14475;DHT22;7323;50.848;4.334;2022-08-21T15:19:08;25.40;1.00
14475;DHT22;7323;50.848;4.334;2022-08-21T15:21:37;25.40;99.90
14475;DHT22;7323;50.848;4.334;2022-08-21T15:24:04;25.20;1.00
14475;DHT22;7323;50.848;4.334;2022-08-21T15:26:32;25.30;1.00
14475;DHT22;7323;50.848;4.334;2022-08-21T15:29:02;25.20;1.00
14475;DHT22;7323;50.848;4.334;2022-08-21T15:31:29;25.20;7.20
14475;DHT22;7323;50.848;4.334;2022-08-21T15:37:18;25.30;1.00
14475;DHT22;7323;50.848;4.334;2022-08-21T15:39:56;25.60;99.90
14475;DHT22;7323;50.848;4.334;2022-08-21T15:42:28;25.20;92.50
14475;DHT22;7323;50.848;4.334;2022-08-21T15:45:02;25.20;1.00
14475;DHT22;7323;50.848;4.334;2022-08-21T15:47:47;25.20;1.00
14475;DHT22;7323;50.848;4.334;2022-08-21T15:50:39;25.30;99.90
14475;DHT22;7323;50.848;4.334;2022-08-21T15:53:07;25.40;1.00
14475;DHT22;7323;50.848;4.334;2022-08-21T15:55:53;25.20;99.90
14475;DHT22;7323;50.848;4.334;2022-08-21T15:58:28;25.60;1.00
14475;DHT22;7323;50.848;4.334;2022-08-21T16:01:08;25.50;1.00
14475;DHT22;7323;50.848;4.334;2022-08-21T16:03:38;25.60;99.90
14475;DHT22;7323;50.848;4.334;2022-08-21T16:22:15;25.60;99.90
14475;DHT22;7323;50.848;4.334;2022-08-21T16:32:12;25.30;99.90
14475;DHT22;7323;50.848;4.334;2022-08-21T16:35:21;25.20;1.00
14475;DHT22;7323;50.848;4.334;2022-08-21T16:41:26;25.20;1.00
14475;DHT22;7323;50.848;4.334;2022-08-21T16:44:37;25.30;99.90
14475;DHT22;7323;50.848;4.334;2022-08-21T16:48:05;25.40;99.90
14475;DHT22;7323;50.848;4.334;2022-08-21T16:54:37;25.20;99.90
14475;DHT22;7323;50.848;4.334;2022-08-21T16:57:54;25.10;1.00
14475;DHT22;7323;50.848;4.334;2022-08-21T17:00:40;24.90;99.90
14475;DHT22;7323;50.848;4.334;2022-08-21T17:03:39;25.00;99.90
14475;DHT22;7323;50.848;4.334;2022-08-21T17:06:16;25.00;7.50
14475;DHT22;7323;50.848;4.334;2022-08-21T17:09:07;24.80;99.90
14475;DHT22;7323;50.848;4.334;2022-08-21T17:11:55;24.70;99.90
14475;DHT22;7323;50.848;4.334;2022-08-21T17:14:30;24.80;99.90
14475;DHT22;7323;50.848;4.334;2022-08-21T17:17:41;24.90;99.90
14475;DHT22;7323;50.848;4.334;2022-08-21T17:20:16;24.80;99.90
14475;DHT22;7323;50.848;4.334;2022-08-21T17:26:07;24.50;32.40
14475;DHT22;7323;50.848;4.334;2022-08-21T17:35:28;24.30;99.90
14475;DHT22;7323;50.848;4.334;2022-08-21T17:38:16;24.10;1.00
14475;DHT22;7323;50.848;4.334;2022-08-21T17:41:12;24.20;99.90
14475;DHT22;7323;50.848;4.334;2022-08-21T17:44:06;24.40;99.90
14475;DHT22;7323;50.848;4.334;2022-08-21T17:47:05;24.40;99.90
14475;DHT22;7323;50.848;4.334;2022-08-21T17:56:53;24.30;99.90
14475;DHT22;7323;50.848;4.334;2022-08-21T17:59:28;24.10;1.00
14475;DHT22;7323;50.848;4.334;2022-08-21T18:02:14;24.10;99.90
14475;DHT22;7323;50.848;4.334;2022-08-21T18:08:14;24.30;1.00
14475;DHT22;7323;50.848;4.334;2022-08-21T18:10:47;24.40;99.90
14475;DHT22;7323;50.848;4.334;2022-08-21T18:13:37;24.40;1.00
14475;DHT22;7323;50.848;4.334;2022-08-21T18:16:38;24.30;98.70
14475;DHT22;7323;50.848;4.334;2022-08-21T18:22:43;24.30;99.90
14475;DHT22;7323;50.848;4.334;2022-08-21T18:25:24;24.30;1.00
14475;DHT22;7323;50.848;4.334;2022-08-21T18:28:38;23.90;1.00
14475;DHT22;7323;50.848;4.334;2022-08-21T18:31:45;23.80;99.90
14475;DHT22;7323;50.848;4.334;2022-08-21T18:34:27;23.70;99.90
14475;DHT22;7323;50.848;4.334;2022-08-21T18:36:53;23.70;1.00
14475;DHT22;7323;50.848;4.334;2022-08-21T18:39:22;23.30;99.90
14475;DHT22;7323;50.848;4.334;2022-08-21T18:41:51;23.40;99.90
14475;DHT22;7323;50.848;4.334;2022-08-21T18:44:26;23.50;99.90
14475;DHT22;7323;50.848;4.334;2022-08-21T18:47:19;23.40;1.00
14475;DHT22;7323;50.848;4.334;2022-08-21T18:49:56;23.40;1.00
14475;DHT22;7323;50.848;4.334;2022-08-21T18:52:24;23.30;1.00
14475;DHT22;7323;50.848;4.334;2022-08-21T18:54:53;23.40;1.00
14475;DHT22;7323;50.848;4.334;2022-08-21T19:00:59;22.90;99.90